Quick Links (Output Below):   Max & Min Temps   /   Climate Reports   /   Zone Forecasts
River Forecasts   /   Forestry Forecasts   /   Aviation Forecasts   /   Radars   /   Features

Terminal Aerodrome Forecast (Mountain Home)

Pick a Site:
Arkadelphia | El Dorado | Fayetteville | Fort Smith | Harrison | Highfill | Hot Springs | Jonesboro
Little Rock | Monticello | Mountain Home | Pine Bluff | Texarkana
 Forecast 

KBPK 282028Z 2820/0118 11007KT 4SM -SN BR SCT015 OVC025
      TEMPO 2820/2823 2SM -SNPL OVC015
     FM282300 11005KT 3SM -FZRAPL BR SCT007 OVC012
     FM010700 VRB03KT 4SM BR OVC005
     FM011400 34004KT 5SM BR OVC007=


 Latest METARs (Observations) 
How to Decode METARs
22Z KBPK 282153Z AUTO 06005KT 4SM -FZRA BR OVC008 M03/M05 A3038 RMK
         AO2 UPE06B20E49FZRAB49SNB06E20 SLP300 P0000 T10331050
         
21Z KBPK 282053Z AUTO 00000KT 4SM UP BR BKN010 OVC049 M04/M06 A3042
         RMK AO2 UPB1955SNE1955 CIG 008V013 SLP313 P0000 60000
         T10391056 55026
         
20Z KBPK 281953Z AUTO 11005KT 3SM -SN BR FEW008 BKN036 OVC047 M04/M06
         A3042 RMK AO2 SLP312 P0000 T10441061
         
19Z KBPK 281853Z AUTO 12005KT 1/2SM SN FZFG VV015 M05/M07 A3046 RMK
         AO2 SLP329 P0000 T10501067
         
18Z KBPK 281753Z AUTO 10005KT 1/2SM SN FZFG BKN018 BKN027 OVC034
         M06/M07 A3050 RMK AO2 SLP340 P0000 60000 T10561072 11056
         21078 55005
         
17Z KBPK 281653Z AUTO 11008KT 2 1/2SM -SN BKN040 OVC049 M06/M08 A3051
         RMK AO2 SNE00B17 SLP345 P0000 T10561083
         
16Z KBPK 281553Z AUTO 09008KT 4SM -SN BR BKN011 BKN036 OVC044 M06/M08
         A3051 RMK AO2 SLP345 P0000 T10611083
         
15Z KBPK 281453Z AUTO 09006KT 1SM -SN BR FEW011 BKN023 OVC033 M07/M09
         A3053 RMK AO2 SLP352 P0000 60000 T10671089 53004
         
14Z KBPK 281353Z AUTO 09007KT 1 1/2SM -SN BR OVC033 M07/M09 A3052 RMK
         AO2 SLP349 P0000 T10721089
         
13Z KBPK 281253Z AUTO 10007KT 5SM -SN BR OVC055 M07/M09 A3052 RMK AO2
         SNE00B18 SLP350 P0000 T10721094
         
***** Today's Observations (Above) *****


Back to Main Page
http://www.srh.noaa.gov/lzk/qfcst.php

USA.gov is the U.S. government's official web portal to all federal, state and local government web resources and services.